Aviation Digital Data Service (ADDS)

Output produced by METARs form (1903 UTC 22 May 2019)
found at http://aviationweather.gov/metar/data/
 
METAR text: EDDK 221850Z VRB02KT CAVOK 15/09 Q1019 NOSIG
Conditions at: EDDK (KOELN/BONN , DE) observed 1850 UTC 22 May 2019
Temperature: 15.0°C (59°F)
Dewpoint: 9.0°C (48°F) [RH = 67%]
Pressure (altimeter): 30.09 inches Hg (1019.0 mb)
Winds: variable direction winds at 2 MPH (2 knots; 1.0 m/s)
Visibility: 6 or more miles (10+ km)
Ceiling: ceiling and visibility are OK
Clouds: unknown
Weather: no significant weather observed at this time

METAR text: EDDK 221820Z 32003KT CAVOK 16/08 Q1019 NOSIG
Conditions at: EDDK (KOELN/BONN , DE) observed 1820 UTC 22 May 2019
Temperature: 16.0°C (61°F)
Dewpoint: 8.0°C (46°F) [RH = 59%]
Pressure (altimeter): 30.09 inches Hg (1019.0 mb)
Winds: from the NW (320 degrees) at 3 MPH (3 knots; 1.5 m/s)
Visibility: 6 or more miles (10+ km)
Ceiling: ceiling and visibility are OK
Clouds: unknown
Weather: no significant weather observed at this time

Forecast for: EDDK (KOELN/BONN , DE)
Text: TAF EDDK 221700Z 2218/2324 29008KT CAVOK
Forecast period: 1800 to 1900 UTC 22 May 2019
Forecast type: FROM: standard forecast or significant change
Winds: from the WNW (290 degrees) at 9 MPH (8 knots; 4.1 m/s)
Visibility: 6 or more miles 10+ km)
Ceiling: unknown
Clouds: missing
Weather: NSW  (no significant weather)
Text: BECMG 2219/2222 VRB02KT
Forecast period: 1900 UTC 22 May 2019 to 0300 UTC 23 May 2019
Forecast type: BECOMING: Conditions expected to become as follows by 2200 UTC 22 May 2019
Winds: variable direction winds at 2 MPH (2 knots; 1.0 m/s)
Visibility: 6 or more miles 10+ km)
Ceiling: unknown
Clouds: missing
Weather: NSW  (no significant weather)
Text: BECMG 2303/2306 14005KT
Forecast period: 0300 to 0900 UTC 23 May 2019
Forecast type: BECOMING: Conditions expected to become as follows by 0600 UTC 23 May 2019
Winds: from the SE (140 degrees) at 6 MPH (5 knots; 2.6 m/s)
Visibility: 6 or more miles 10+ km)
Ceiling: unknown
Clouds: missing
Weather: NSW  (no significant weather)
Text: BECMG 2309/2312 25005KT
Forecast period: 0900 to 1700 UTC 23 May 2019
Forecast type: BECOMING: Conditions expected to become as follows by 1200 UTC 23 May 2019
Winds: from the WSW (250 degrees) at 6 MPH (5 knots; 2.6 m/s)
Visibility: 6 or more miles 10+ km)
Ceiling: unknown
Clouds: missing
Weather: NSW  (no significant weather)
Text: BECMG 2317/2320 VRB03KT
Forecast period: 1700 UTC 23 May 2019 to 0000 UTC 24 May 2019
Forecast type: BECOMING: Conditions expected to become as follows by 2000 UTC 23 May 2019
Winds: variable direction winds at 3 MPH (3 knots; 1.5 m/s)
Visibility: 6 or more miles 10+ km)
Ceiling: unknown
Clouds: missing
Weather: NSW  (no significant weather)